Time;durP1;ratioP1;P1;durP2;ratioP2;P2;SDS_P1;SDS_P2;PMS_P1;PMS_P2;Temp;Humidity;BMP_temperature;BMP_pressure;BME280_temperature;BME280_humidity;BME280_pressure;Samples;Min_cycle;Max_cycle;Signal;HPM_P1;HPM_P2
2022/10/12 00:01:12;;;;;;;3.97;1.70;;;;;;;8.08;100.00;101964.81;5076524;28;20281;-71
2022/10/12 00:03:38;;;;;;;11.23;2.97;;;;;;;8.12;100.00;101967.13;5073529;28;20043;-72
2022/10/12 00:06:11;;;;;;;10.07;3.03;;;;;;;8.20;100.00;101974.56;5073727;28;20054;-71
2022/10/12 00:08:37;;;;;;;10.10;3.42;;;;;;;8.25;100.00;101988.34;5072857;28;20477;-71
2022/10/12 00:11:05;;;;;;;14.25;1.90;;;;;;;8.23;100.00;101985.78;5060846;28;20033;-72
2022/10/12 00:13:31;;;;;;;8.82;1.83;;;;;;;8.09;100.00;101983.34;5071662;28;20447;-72
2022/10/12 00:15:56;;;;;;;6.97;2.07;;;;;;;8.06;100.00;101982.72;5066563;28;20099;-72
2022/10/12 00:18:22;;;;;;;12.37;2.53;;;;;;;8.03;100.00;101989.97;5046625;28;20314;-71
2022/10/12 00:20:47;;;;;;;7.18;1.95;;;;;;;7.98;100.00;101985.94;5070622;28;20036;-72
2022/10/12 00:23:13;;;;;;;9.13;1.83;;;;;;;7.96;100.00;101982.56;5047809;28;20486;-72
2022/10/12 00:25:40;;;;;;;5.67;1.90;;;;;;;7.95;100.00;101981.72;5061769;28;20032;-72
2022/10/12 00:28:06;;;;;;;9.38;2.05;;;;;;;7.92;100.00;101987.28;5070650;28;20429;-71
2022/10/12 00:30:33;;;;;;;5.40;1.77;;;;;;;7.91;100.00;101985.56;5062751;28;20040;-71
2022/10/12 00:32:58;;;;;;;5.78;2.03;;;;;;;7.96;100.00;101982.56;5040092;28;20094;-71
2022/10/12 00:35:24;;;;;;;11.23;2.50;;;;;;;7.82;100.00;101981.78;5069799;28;20028;-71
2022/10/12 00:37:53;;;;;;;2.47;1.57;;;;;;;7.67;100.00;101971.44;5069089;28;20037;-71
2022/10/12 00:40:19;;;;;;;7.90;2.20;;;;;;;7.67;100.00;101968.78;5042788;28;20071;-72
2022/10/12 00:42:45;;;;;;;5.40;1.60;;;;;;;7.56;100.00;101974.88;5040837;28;20032;-71
2022/10/12 00:45:10;;;;;;;7.03;1.97;;;;;;;7.43;100.00;101969.63;5046642;28;20053;-71
2022/10/12 00:47:39;;;;;;;10.83;2.33;;;;;;;7.36;100.00;101969.22;5047957;28;20070;-72
2022/10/12 00:50:17;;;;;;;10.25;2.03;;;;;;;7.34;100.00;101962.34;5040127;28;20032;-72
2022/10/12 00:52:52;;;;;;;5.30;1.67;;;;;;;7.35;100.00;101971.97;5070878;28;20042;-71
2022/10/12 00:55:20;;;;;;;8.60;1.92;;;;;;;7.33;100.00;101973.94;5068684;28;20036;-71
2022/10/12 00:57:47;;;;;;;5.55;1.90;;;;;;;7.32;100.00;101977.53;5069748;28;20106;-71
2022/10/12 01:00:13;;;;;;;4.97;1.98;;;;;;;7.36;100.00;101981.66;5072167;28;20041;-71
2022/10/12 01:02:41;;;;;;;6.93;2.38;;;;;;;7.36;100.00;101979.00;5071773;28;20373;-72
2022/10/12 01:05:08;;;;;;;6.85;2.55;;;;;;;7.39;100.00;101978.78;5073258;28;20029;-72
2022/10/12 01:07:33;;;;;;;5.60;2.25;;;;;;;7.41;100.00;101984.84;5054658;28;20085;-72
2022/10/12 01:09:59;;;;;;;4.87;2.07;;;;;;;7.42;100.00;101972.41;5064026;28;20028;-72
2022/10/12 01:12:25;;;;;;;7.47;1.73;;;;;;;7.41;100.00;101976.88;5045465;28;20096;-71
2022/10/12 01:14:51;;;;;;;12.63;3.63;;;;;;;7.42;100.00;101972.41;5059446;28;20044;-72
2022/10/12 01:17:51;;;;;;;9.53;3.17;;;;;;;7.47;100.00;101975.56;5047781;28;20024;-71
2022/10/12 01:20:38;;;;;;;14.52;4.15;;;;;;;7.48;100.00;101988.75;5070384;28;20062;-71
2022/10/12 01:23:16;;;;;;;13.15;5.28;;;;;;;7.48;100.00;101990.56;5064208;28;20532;-71
2022/10/12 01:25:50;;;;;;;11.15;3.53;;;;;;;7.49;100.00;101995.78;5054382;28;20520;-72
2022/10/12 01:28:33;;;;;;;12.63;4.07;;;;;;;7.54;100.00;101996.28;5072073;28;20119;-72
2022/10/12 01:31:12;;;;;;;14.45;4.35;;;;;;;7.55;100.00;102000.63;5071018;28;20115;-71
2022/10/12 01:33:47;;;;;;;16.08;5.20;;;;;;;7.54;100.00;101996.28;5071682;28;20143;-72
2022/10/12 01:36:41;;;;;;;10.30;3.92;;;;;;;7.64;100.00;102003.59;5074873;28;20190;-71
2022/10/12 01:39:49;;;;;;;18.30;4.95;;;;;;;7.66;100.00;101999.84;5049897;28;20049;-72
2022/10/12 01:42:22;;;;;;;15.55;4.35;;;;;;;7.69;100.00;101996.94;5017668;28;20531;-72
2022/10/12 01:44:47;;;;;;;10.80;3.95;;;;;;;7.70;100.00;102003.09;5066980;28;20063;-72
2022/10/12 01:47:13;;;;;;;12.07;4.43;;;;;;;7.76;100.00;101994.69;5046810;28;20090;-72
2022/10/12 01:49:38;;;;;;;13.73;4.32;;;;;;;7.76;100.00;101997.34;5071659;28;20404;-72
2022/10/12 01:52:19;;;;;;;16.03;4.87;;;;;;;7.75;100.00;101987.66;5066099;28;20028;-72
2022/10/12 01:54:56;;;;;;;12.93;4.38;;;;;;;7.81;100.00;101987.22;5065762;28;20035;-72
2022/10/12 01:57:53;;;;;;;19.58;4.90;;;;;;;7.68;100.00;101989.06;5051652;28;20126;-72
2022/10/12 02:00:19;;;;;;;14.40;5.30;;;;;;;7.65;100.00;101984.00;5047777;28;20040;-71
2022/10/12 02:02:49;;;;;;;15.70;5.68;;;;;;;7.65;100.00;101974.22;5067516;28;20389;-71
2022/10/12 02:05:43;;;;;;;16.02;6.15;;;;;;;7.65;100.00;101976.03;5046042;28;20032;-71
2022/10/12 02:08:23;;;;;;;20.13;8.05;;;;;;;7.68;100.00;101973.13;5057755;28;20036;-71
2022/10/12 02:11:01;;;;;;;14.68;6.43;;;;;;;7.70;100.00;101979.19;5067947;28;20453;-71
2022/10/12 02:13:31;;;;;;;19.42;5.88;;;;;;;7.60;100.00;101966.56;5046710;28;20040;-72
2022/10/12 02:15:59;;;;;;;15.98;5.72;;;;;;;7.56;100.00;101967.78;5027372;28;20505;-72
2022/10/12 02:18:27;;;;;;;17.58;7.50;;;;;;;7.46;100.00;101960.59;5033435;28;20101;-71
2022/10/12 02:20:57;;;;;;;25.00;6.80;;;;;;;7.44;100.00;101966.00;5048182;28;20551;-72
2022/10/12 02:23:24;;;;;;;12.50;6.13;;;;;;;7.49;100.00;101958.56;5056081;28;20060;-71
2022/10/12 02:25:52;;;;;;;17.45;6.30;;;;;;;7.51;100.00;101951.31;5065910;28;20519;-71
2022/10/12 02:28:21;;;;;;;13.40;5.88;;;;;;;7.44;100.00;101963.34;5046725;28;20257;-72
2022/10/12 02:30:53;;;;;;;14.65;5.93;;;;;;;7.32;100.00;101954.47;5066849;28;20423;-72
2022/10/12 02:33:34;;;;;;;20.45;6.47;;;;;;;7.08;100.00;101943.81;5050242;28;20398;-72
2022/10/12 02:36:04;;;;;;;21.65;5.32;;;;;;;7.02;100.00;101949.56;5054237;28;20048;-71
2022/10/12 02:38:45;;;;;;;14.38;5.72;;;;;;;6.89;100.00;101944.28;5040387;28;20036;-71
2022/10/12 02:41:15;;;;;;;10.40;5.10;;;;;;;6.80;100.00;101928.16;5064869;28;20037;-71
2022/10/12 02:43:45;;;;;;;12.57;4.68;;;;;;;6.67;100.00;101923.75;5051146;28;20036;-71
2022/10/12 02:46:12;;;;;;;14.10;5.43;;;;;;;6.61;100.00;101916.19;5072553;28;20029;-71
2022/10/12 02:48:40;;;;;;;13.45;4.43;;;;;;;6.50;100.00;101916.09;5052944;28;20503;-71
2022/10/12 02:51:07;;;;;;;10.80;4.20;;;;;;;6.49;100.00;101911.75;5060165;28;20025;-71
2022/10/12 02:53:32;;;;;;;14.88;3.90;;;;;;;6.39;100.00;101913.34;5068279;28;20501;-71
2022/10/12 02:56:11;;;;;;;11.23;4.53;;;;;;;6.37;100.00;101910.81;5069396;28;20086;-72
2022/10/12 02:58:37;;;;;;;14.40;4.30;;;;;;;6.29;100.00;101907.84;5070889;28;20035;-72
2022/10/12 03:01:02;;;;;;;14.43;4.53;;;;;;;6.25;100.00;101898.38;5054682;28;20448;-71
2022/10/12 03:03:27;;;;;;;20.63;6.93;;;;;;;6.23;100.00;101893.22;5071900;28;20032;-71
2022/10/12 03:05:53;;;;;;;14.07;5.33;;;;;;;6.29;100.00;101898.06;5065480;28;20129;-71
2022/10/12 03:08:18;;;;;;;18.67;7.30;;;;;;;6.31;100.00;101897.97;5049145;28;20074;-72
2022/10/12 03:10:44;;;;;;;11.80;4.88;;;;;;;6.19;100.00;101891.72;5074334;28;20043;-71
2022/10/12 03:13:09;;;;;;;15.83;4.80;;;;;;;6.21;100.00;101895.09;5069949;28;20398;-71
2022/10/12 03:15:35;;;;;;;15.80;6.00;;;;;;;6.28;100.00;101895.53;5070825;28;20020;-72
2022/10/12 03:18:00;;;;;;;9.63;4.45;;;;;;;6.36;100.00;101902.94;5043858;28;20025;-71
2022/10/12 03:20:26;;;;;;;10.77;5.07;;;;;;;6.40;100.00;101909.75;5070618;28;20058;-72
2022/10/12 03:22:51;;;;;;;12.77;5.47;;;;;;;6.44;100.00;101905.91;5042726;28;20329;-71
2022/10/12 03:25:16;;;;;;;10.40;4.90;;;;;;;6.51;100.00;101908.03;5073654;28;20056;-72
2022/10/12 03:27:42;;;;;;;15.73;5.43;;;;;;;6.57;100.00;101908.56;5068234;28;20531;-72
2022/10/12 03:30:10;;;;;;;8.33;4.83;;;;;;;6.63;100.00;101911.63;5071479;28;21026;-72
2022/10/12 03:32:36;;;;;;;12.20;6.10;;;;;;;6.68;100.00;101908.66;5064444;28;20131;-71
2022/10/12 03:35:01;;;;;;;10.50;5.53;;;;;;;6.75;100.00;101909.91;5071962;28;20071;-71
2022/10/12 03:37:27;;;;;;;14.40;5.60;;;;;;;6.82;100.00;101910.34;5077786;28;20036;-72
2022/10/12 03:39:52;;;;;;;17.25;6.57;;;;;;;6.87;100.00;101917.00;5054220;28;20029;-71
2022/10/12 03:42:17;;;;;;;19.80;7.20;;;;;;;6.87;100.00;101921.47;5071466;28;20044;-71
2022/10/12 03:44:43;;;;;;;19.93;6.03;;;;;;;6.84;100.00;101913.72;5047962;28;20044;-71
2022/10/12 03:47:08;;;;;;;13.40;7.73;;;;;;;6.87;100.00;101914.34;5043170;28;20033;-71
2022/10/12 03:49:33;;;;;;;16.40;8.23;;;;;;;6.75;100.00;101905.44;5045639;28;20035;-70
2022/10/12 03:51:59;;;;;;;16.10;7.53;;;;;;;6.63;100.00;101906.34;5050959;28;20037;-71
2022/10/12 03:54:24;;;;;;;16.60;5.83;;;;;;;6.52;100.00;101903.56;5071421;28;20115;-71
2022/10/12 03:56:49;;;;;;;14.63;6.77;;;;;;;6.41;100.00;101890.22;5068559;28;20115;-71
2022/10/12 03:59:15;;;;;;;16.20;7.53;;;;;;;6.36;100.00;101887.03;5077333;28;20488;-71
2022/10/12 04:01:40;;;;;;;14.53;6.10;;;;;;;6.29;100.00;101890.09;5068599;28;20089;-71
2022/10/12 04:04:06;;;;;;;12.33;6.57;;;;;;;6.18;100.00;101884.72;5074060;28;20028;-71
2022/10/12 04:06:31;;;;;;;11.37;5.93;;;;;;;6.09;100.00;101880.06;5075739;28;20036;-71
2022/10/12 04:08:56;;;;;;;12.60;6.17;;;;;;;6.12;100.00;101885.13;5067803;28;20036;-71
2022/10/12 04:11:22;;;;;;;11.57;5.50;;;;;;;6.04;100.00;101890.09;5029647;28;20577;-72
2022/10/12 04:13:47;;;;;;;11.50;6.50;;;;;;;5.97;100.00;101886.19;5074374;28;20537;-72
2022/10/12 04:16:13;;;;;;;11.77;5.17;;;;;;;5.91;100.00;101882.97;5076322;28;20255;-71
2022/10/12 04:18:38;;;;;;;15.60;6.57;;;;;;;5.86;100.00;101879.78;5055144;28;20534;-71
2022/10/12 04:21:11;;;;;;;14.07;6.07;;;;;;;5.82;100.00;101878.28;5071754;28;20028;-71
2022/10/12 04:23:36;;;;;;;11.85;5.90;;;;;;;5.75;100.00;101871.69;5065254;28;20024;-71
2022/10/12 04:26:01;;;;;;;15.17;6.43;;;;;;;5.70;100.00;101868.53;5075743;28;20385;-71
2022/10/12 04:28:27;;;;;;;13.67;6.13;;;;;;;5.68;100.00;101865.13;5063007;28;20043;-71
2022/10/12 04:30:52;;;;;;;16.33;6.67;;;;;;;5.64;100.00;101858.31;5074834;28;20032;-72
2022/10/12 04:33:17;;;;;;;15.30;6.70;;;;;;;5.64;100.00;101860.97;5049448;28;20409;-71
2022/10/12 04:35:43;;;;;;;14.53;5.70;;;;;;;5.58;100.00;101859.59;5055518;28;20404;-72
2022/10/12 04:38:08;;;;;;;20.27;7.30;;;;;;;5.64;100.00;101859.19;5079474;28;20090;-71
2022/10/12 04:40:34;;;;;;;12.17;5.70;;;;;;;5.57;100.00;101867.63;5080407;28;20324;-71
2022/10/12 04:42:59;;;;;;;22.73;7.87;;;;;;;5.49;100.00;101858.41;5077344;28;20114;-72
2022/10/12 04:45:24;;;;;;;14.57;6.67;;;;;;;5.46;100.00;101855.13;5062347;28;20422;-72
2022/10/12 04:47:50;;;;;;;11.50;6.40;;;;;;;5.44;100.00;101847.28;5059911;28;20081;-72
2022/10/12 04:50:15;;;;;;;12.67;5.90;;;;;;;5.40;100.00;101848.41;5080165;28;20031;-71
2022/10/12 04:52:40;;;;;;;13.17;4.97;;;;;;;5.38;100.00;101845.03;5052770;28;20499;-72
2022/10/12 04:55:06;;;;;;;16.77;5.97;;;;;;;5.37;100.00;101840.69;5048706;28;20031;-72
2022/10/12 04:57:32;;;;;;;16.77;6.68;;;;;;;5.32;100.00;101842.78;5065665;28;20037;-72
2022/10/12 04:59:57;;;;;;;11.43;5.57;;;;;;;5.32;100.00;101847.25;5052634;28;20151;-71
2022/10/12 05:02:22;;;;;;;12.13;5.77;;;;;;;5.28;100.00;101843.94;5049143;28;20029;-71
2022/10/12 05:04:48;;;;;;;14.97;6.10;;;;;;;5.21;100.00;101835.53;5073768;28;20039;-71
2022/10/12 05:07:13;;;;;;;15.40;6.83;;;;;;;5.15;100.00;101841.28;5079350;28;20363;-72
2022/10/12 05:09:38;;;;;;;16.03;6.73;;;;;;;5.13;100.00;101831.69;5078922;28;20035;-71
2022/10/12 05:12:04;;;;;;;21.43;8.00;;;;;;;5.13;100.00;101829.06;5071884;28;20032;-71
2022/10/12 05:14:29;;;;;;;14.13;6.70;;;;;;;5.10;100.00;101832.75;5065620;28;20027;-71
2022/10/12 05:16:55;;;;;;;16.03;6.00;;;;;;;5.05;100.00;101835.69;5060176;28;20066;-72
2022/10/12 05:19:20;;;;;;;14.20;6.67;;;;;;;5.02;100.00;101827.97;5073292;28;20040;-72
2022/10/12 05:21:45;;;;;;;15.33;6.90;;;;;;;5.00;100.00;101839.59;5075419;28;20040;-71
2022/10/12 05:24:11;;;;;;;12.53;6.87;;;;;;;4.98;100.00;101829.09;5056423;28;20077;-71
2022/10/12 05:26:36;;;;;;;22.17;8.60;;;;;;;4.96;100.00;101828.34;5022517;28;20485;-71
2022/10/12 05:29:02;;;;;;;18.10;8.63;;;;;;;5.00;100.00;101831.66;5057579;28;20035;-71
2022/10/12 05:31:27;;;;;;;20.53;9.10;;;;;;;4.98;100.00;101831.75;5072961;28;20105;-71
2022/10/12 05:33:52;;;;;;;19.63;7.73;;;;;;;4.95;100.00;101837.25;5076076;28;20036;-72
2022/10/12 05:36:18;;;;;;;16.07;8.07;;;;;;;4.94;100.00;101838.22;5072350;28;20032;-71
2022/10/12 05:38:43;;;;;;;25.37;10.33;;;;;;;4.93;100.00;101843.59;5074252;28;20032;-72
2022/10/12 05:41:08;;;;;;;19.80;8.13;;;;;;;4.95;100.00;101839.06;5073552;28;20032;-72
2022/10/12 05:43:34;;;;;;;19.33;9.07;;;;;;;4.99;100.00;101849.34;5044028;28;20040;-72
2022/10/12 05:45:59;;;;;;;18.23;7.77;;;;;;;5.05;100.00;101854.22;5067439;28;20025;-72
2022/10/12 05:48:24;;;;;;;16.30;8.23;;;;;;;5.06;100.00;101853.28;5059837;28;20036;-71
2022/10/12 05:50:53;;;;;;;15.98;8.25;;;;;;;5.13;100.00;101863.47;5073772;28;20028;-72
2022/10/12 05:53:19;;;;;;;16.17;8.27;;;;;;;5.20;100.00;101865.63;5086787;28;20028;-71
2022/10/12 05:55:55;;;;;;;;;;;;;;;5.34;100.00;101882.41;5058699;28;20028;-71
2022/10/12 05:58:21;;;;;;;14.48;7.50;;;;;;;5.41;100.00;101873.97;5072043;28;19954;-71
2022/10/12 06:00:46;;;;;;;18.00;10.13;;;;;;;5.51;100.00;101890.09;5070596;28;20036;-71
2022/10/12 06:03:12;;;;;;;21.83;9.47;;;;;;;5.56;100.00;101882.69;5046235;28;20485;-71
2022/10/12 06:05:37;;;;;;;18.57;8.17;;;;;;;5.65;100.00;101883.88;5057009;28;20291;-71
2022/10/12 06:08:03;;;;;;;16.50;8.73;;;;;;;5.68;100.00;101875.72;5074407;28;20098;-71
2022/10/12 06:10:28;;;;;;;16.30;8.13;;;;;;;5.77;100.00;101876.91;5076607;28;20032;-71
2022/10/12 06:12:53;;;;;;;18.37;7.63;;;;;;;5.84;100.00;101886.13;5074721;28;20290;-71
2022/10/12 06:15:19;;;;;;;16.37;8.53;;;;;;;5.91;100.00;101882.97;5055645;28;20115;-70
2022/10/12 06:17:44;;;;;;;17.07;8.60;;;;;;;5.98;100.00;101883.44;5079150;28;20032;-70
2022/10/12 06:20:10;;;;;;;21.93;9.80;;;;;;;6.05;100.00;101887.34;5059401;28;20043;-71
2022/10/12 06:22:35;;;;;;;14.35;7.38;;;;;;;6.12;100.00;101880.69;5076942;28;20029;-72
2022/10/12 06:25:00;;;;;;;20.60;9.43;;;;;;;6.20;100.00;101881.94;5040792;28;20036;-72
2022/10/12 06:27:26;;;;;;;14.73;8.03;;;;;;;6.26;100.00;101890.34;5081223;28;20040;-71
2022/10/12 06:29:51;;;;;;;20.63;8.77;;;;;;;6.30;100.00;101886.53;5069420;28;20037;-71
2022/10/12 06:32:16;;;;;;;22.03;9.27;;;;;;;6.42;100.00;101889.28;5071868;28;20032;-71
2022/10/12 06:34:42;;;;;;;23.93;11.53;;;;;;;6.46;100.00;101890.72;5080491;28;20097;-71
2022/10/12 06:37:07;;;;;;;24.40;10.35;;;;;;;6.59;100.00;101893.38;5075322;28;20036;-72
2022/10/12 06:39:33;;;;;;;20.73;8.70;;;;;;;6.90;100.00;101906.16;5075212;28;20444;-71
2022/10/12 06:41:58;;;;;;;20.73;9.70;;;;;;;7.24;100.00;101916.16;5069223;28;20032;-71
2022/10/12 06:44:26;;;;;;;27.00;11.40;;;;;;;7.57;100.00;101924.28;5076613;28;20106;-72
2022/10/12 06:46:52;;;;;;;21.07;10.60;;;;;;;7.89;100.00;101930.78;5071970;28;20917;-72
2022/10/12 06:49:17;;;;;;;17.60;10.13;;;;;;;8.21;100.00;101934.50;5075888;28;20032;-71
2022/10/12 06:51:43;;;;;;;17.83;11.17;;;;;;;8.36;100.00;101927.16;5075337;28;20700;-71
2022/10/12 06:54:08;;;;;;;20.77;10.80;;;;;;;8.77;100.00;101920.44;5077391;28;20024;-72
2022/10/12 06:56:33;;;;;;;17.20;9.17;;;;;;;9.02;100.00;101923.81;5037464;28;20332;-72
2022/10/12 06:58:59;;;;;;;17.10;9.50;;;;;;;9.34;100.00;101933.66;5079599;28;20055;-72
2022/10/12 07:01:24;;;;;;;24.97;10.77;;;;;;;9.47;100.00;101940.50;5071458;28;20044;-72
2022/10/12 07:03:50;;;;;;;24.63;9.83;;;;;;;9.79;100.00;101939.69;5072281;28;20035;-72
2022/10/12 07:06:16;;;;;;;;;;;;;;;9.93;100.00;101926.03;5079644;28;20051;-72
2022/10/12 07:08:41;;;;;;;;;;;;;;;9.87;100.00;101907.03;5057147;28;19912;-72
2022/10/12 07:11:09;;;;;;;23.13;10.20;;;;;;;10.26;100.00;101889.44;5075134;28;19912;-72
2022/10/12 07:13:35;;;;;;;14.38;7.25;;;;;;;10.60;100.00;101872.31;5074787;28;20036;-71
2022/10/12 07:16:00;;;;;;;16.00;8.15;;;;;;;10.82;100.00;101853.44;5063004;28;20016;-72
2022/10/12 07:18:26;;;;;;;15.63;6.25;;;;;;;10.98;100.00;101826.19;5058450;28;20119;-71
2022/10/12 07:20:56;;;;;;;12.95;6.60;;;;;;;10.64;100.00;101782.94;5073402;28;20085;-71
2022/10/12 07:23:21;;;;;;;13.32;5.68;;;;;;;11.32;100.00;101781.16;5066914;28;20433;-72
2022/10/12 07:25:48;;;;;;;12.63;5.73;;;;;;;11.63;100.00;101751.53;5078248;28;20024;-72
2022/10/12 07:28:14;;;;;;;14.35;6.95;;;;;;;12.07;100.00;101727.75;5050448;28;20657;-72
2022/10/12 07:30:40;;;;;;;14.57;6.38;;;;;;;11.67;100.00;101640.59;5053974;28;20024;-71
2022/10/12 07:33:05;;;;;;;12.60;6.67;;;;;;;11.84;100.00;101614.88;5073497;28;20378;-71
2022/10/12 07:35:31;;;;;;;18.57;7.50;;;;;;;12.48;100.00;101612.19;5069764;28;20036;-72
2022/10/12 07:37:56;;;;;;;14.03;6.67;;;;;;;11.88;100.00;101519.97;5078263;28;20031;-71
2022/10/12 07:40:21;;;;;;;19.97;7.13;;;;;;;12.30;100.00;101539.94;5058327;28;20135;-72
2022/10/12 07:42:47;;;;;;;14.57;6.33;;;;;;;12.90;100.00;101521.28;5078307;28;20059;-72
2022/10/12 07:45:12;;;;;;;12.77;4.77;;;;;;;13.58;100.00;101490.06;5072016;28;20098;-72
2022/10/12 07:47:37;;;;;;;12.50;5.97;;;;;;;13.88;100.00;101398.19;5071817;28;20040;-72
2022/10/12 07:50:03;;;;;;;14.07;5.13;;;;;;;14.13;100.00;101306.88;5073472;28;20474;-72
2022/10/12 07:52:29;;;;;;;11.20;5.72;;;;;;;14.84;100.00;101259.38;5041911;28;20792;-73
2022/10/12 07:54:54;;;;;;;12.68;5.63;;;;;;;15.08;100.00;101088.16;5074040;28;20020;-73
2022/10/12 07:57:19;;;;;;;17.67;6.57;;;;;;;14.92;100.00;100955.56;5053675;28;20043;-73
2022/10/12 07:59:45;;;;;;;15.07;4.77;;;;;;;14.63;100.00;100929.50;5047361;28;20037;-71
2022/10/12 08:02:11;;;;;;;9.65;5.22;;;;;;;13.96;100.00;100854.31;5040860;28;20639;-72
2022/10/12 08:04:36;;;;;;;12.05;4.63;;;;;;;13.97;100.00;101046.53;5058219;28;20105;-71
2022/10/12 08:07:02;;;;;;;13.07;5.53;;;;;;;14.27;100.00;101115.47;5056901;28;20844;-71
2022/10/12 08:09:27;;;;;;;18.13;4.97;;;;;;;14.92;100.00;101070.31;5056400;28;21028;-71
2022/10/12 08:11:53;;;;;;;10.40;4.20;;;;;;;15.48;100.00;101119.16;5050478;28;20127;-72
2022/10/12 08:14:18;;;;;;;13.10;4.17;;;;;;;15.57;100.00;100893.84;5074961;28;20150;-72
2022/10/12 08:16:44;;;;;;;9.70;4.40;;;;;;;15.75;100.00;100906.88;5064637;28;20110;-72
2022/10/12 08:19:10;;;;;;;13.15;4.03;;;;;;;16.06;100.00;100761.13;5071290;28;20502;-72
2022/10/12 08:21:35;;;;;;;14.77;4.55;;;;;;;15.96;100.00;100632.22;5057830;28;20029;-72
2022/10/12 08:24:01;;;;;;;20.60;6.80;;;;;;;16.28;100.00;100632.56;5053083;28;20036;-72
2022/10/12 08:26:28;;;;;;;15.30;6.17;;;;;;;15.11;100.00;100669.13;5050005;28;20029;-72
2022/10/12 08:28:53;;;;;;;14.98;5.40;;;;;;;16.16;100.00;100852.34;5058217;28;20060;-72
2022/10/12 08:31:18;;;;;;;10.87;4.97;;;;;;;15.69;100.00;100795.41;5069496;28;20103;-72
2022/10/12 08:33:44;;;;;;;17.90;6.47;;;;;;;15.49;100.00;100818.63;5033012;28;20025;-72
2022/10/12 08:36:11;;;;;;;16.13;5.00;;;;;;;15.62;100.00;100633.91;5075049;28;20385;-72
2022/10/12 08:38:42;;;;;;;11.50;4.57;;;;;;;15.82;100.00;100727.41;5043470;28;20125;-72
2022/10/12 08:41:22;;;;;;;13.55;4.22;;;;;;;16.65;100.00;100655.44;5069285;28;20927;-72
2022/10/12 08:44:25;;;;;;;15.82;4.32;;;;;;;16.33;100.00;100622.00;5065977;28;20035;-72
2022/10/12 08:46:57;;;;;;;16.00;4.03;;;;;;;16.05;100.00;100697.50;5042537;28;20041;-72
2022/10/12 08:49:24;;;;;;;9.52;3.95;;;;;;;16.56;100.00;100640.50;5036400;28;20039;-72
2022/10/12 08:52:03;;;;;;;11.32;3.63;;;;;;;15.89;97.74;100401.72;5042277;28;20462;-72
2022/10/12 08:54:34;;;;;;;13.70;3.50;;;;;;;16.74;99.02;100728.88;5055959;28;20045;-72
2022/10/12 08:56:59;;;;;;;15.15;4.75;;;;;;;16.76;95.78;100575.81;5037802;28;20107;-72
2022/10/12 08:59:26;;;;;;;8.90;3.60;;;;;;;17.66;93.18;100634.69;5071183;28;20119;-72
2022/10/12 09:02:12;;;;;;;15.43;4.28;;;;;;;16.86;91.73;100419.91;5075632;28;20674;-72
2022/10/12 09:04:58;;;;;;;16.00;4.45;;;;;;;16.35;92.81;100466.38;5063304;28;20069;-72
2022/10/12 09:07:28;;;;;;;12.40;4.85;;;;;;;16.07;96.49;100695.44;5057401;28;20543;-72
2022/10/12 09:10:06;;;;;;;8.30;3.35;;;;;;;16.58;98.05;100877.47;5048498;28;20037;-72
2022/10/12 09:12:49;;;;;;;11.50;4.07;;;;;;;16.36;94.92;100647.69;5057348;28;20086;-72
2022/10/12 09:15:36;;;;;;;14.10;5.03;;;;;;;14.75;100.00;100901.16;5046190;28;20478;-71
2022/10/12 09:18:13;;;;;;;11.90;4.00;;;;;;;16.40;100.00;101253.34;5049400;28;20033;-72
2022/10/12 09:20:50;;;;;;;11.02;4.38;;;;;;;16.74;100.00;101094.66;5075712;28;20080;-72
2022/10/12 09:23:26;;;;;;;13.35;4.40;;;;;;;16.60;96.26;100808.84;5058111;28;20538;-72
2022/10/12 09:25:55;;;;;;;23.10;7.03;;;;;;;15.94;98.62;100835.38;5058814;28;20410;-72
2022/10/12 09:28:36;;;;;;;16.02;4.47;;;;;;;16.20;99.62;100985.56;5063434;28;20041;-72
2022/10/12 09:31:10;;;;;;;14.95;4.80;;;;;;;16.56;95.94;100848.03;5075217;28;20036;-72
2022/10/12 09:33:41;;;;;;;14.88;3.92;;;;;;;16.77;94.30;100830.91;5079077;28;20503;-72
2022/10/12 09:36:09;;;;;;;13.40;3.60;;;;;;;17.20;90.92;100771.28;5046645;28;20025;-72
2022/10/12 09:38:37;;;;;;;13.77;3.72;;;;;;;17.24;88.40;100602.59;5073251;28;20040;-72
2022/10/12 09:41:02;;;;;;;16.58;3.83;;;;;;;17.84;87.93;100766.34;5066768;28;20175;-72
2022/10/12 09:43:27;;;;;;;15.67;3.63;;;;;;;18.02;85.36;100644.16;5056085;28;20378;-72
2022/10/12 09:45:53;;;;;;;9.47;3.03;;;;;;;17.68;82.47;100370.75;5046904;28;20037;-72
2022/10/12 09:48:21;;;;;;;13.17;2.90;;;;;;;18.28;84.02;100665.63;5062925;28;20037;-72
2022/10/12 09:50:59;;;;;;;9.02;3.22;;;;;;;18.66;78.17;100289.00;5060524;28;20028;-72
2022/10/12 09:53:30;;;;;;;12.30;3.00;;;;;;;17.75;77.88;100096.13;5068781;28;20478;-72
2022/10/12 09:55:57;;;;;;;6.18;3.00;;;;;;;17.40;78.87;100187.63;5028284;28;20040;-72
2022/10/12 09:58:25;;;;;;;14.00;3.05;;;;;;;16.93;80.86;100297.69;5067638;28;20115;-71
2022/10/12 10:01:18;;;;;;;12.70;3.55;;;;;;;16.56;83.53;100499.53;5051152;28;20047;-72
2022/10/12 10:03:46;;;;;;;14.77;3.53;;;;;;;17.71;82.16;100621.38;5046199;28;20118;-72
2022/10/12 10:06:14;;;;;;;10.50;2.75;;;;;;;17.55;80.23;100451.78;5066919;28;20037;-72
2022/10/12 10:08:44;;;;;;;19.08;3.25;;;;;;;17.11;79.77;100340.13;5050449;28;20079;-72
2022/10/12 10:11:15;;;;;;;13.23;3.38;;;;;;;17.83;78.32;100429.84;5054693;28;20056;-72
2022/10/12 10:13:48;;;;;;;26.88;5.63;;;;;;;18.22;77.31;100471.97;5075990;28;20035;-72
2022/10/12 10:16:15;;;;;;;13.93;3.83;;;;;;;18.81;76.48;100525.78;5028216;28;20507;-72
2022/10/12 10:18:43;;;;;;;16.35;2.60;;;;;;;19.03;73.89;100355.75;5046080;28;20112;-72
2022/10/12 10:21:11;;;;;;;13.55;3.53;;;;;;;17.50;73.04;99891.09;5040695;28;20393;-72
2022/10/12 10:23:50;;;;;;;11.68;3.70;;;;;;;17.44;76.43;100299.47;5048555;28;20058;-72
2022/10/12 10:26:18;;;;;;;16.50;3.35;;;;;;;16.87;76.48;100223.91;5056868;28;20581;-72
2022/10/12 10:28:46;;;;;;;10.27;2.47;;;;;;;16.96;77.66;100388.97;5047707;28;20042;-72
2022/10/12 10:31:12;;;;;;;12.05;2.50;;;;;;;16.32;78.89;100417.44;5051411;28;20051;-72
2022/10/12 10:33:37;;;;;;;11.33;3.10;;;;;;;17.45;79.68;100757.22;5052630;28;20056;-72
2022/10/12 10:36:14;;;;;;;13.05;3.13;;;;;;;17.45;78.73;100678.94;5038156;28;20428;-72
2022/10/12 10:39:01;;;;;;;18.65;3.63;;;;;;;17.44;76.73;100470.31;5046297;28;20040;-72
2022/10/12 10:41:38;;;;;;;12.25;2.88;;;;;;;18.19;75.51;100574.22;5054259;28;20043;-72
2022/10/12 10:44:16;;;;;;;10.30;3.10;;;;;;;18.26;73.90;100434.50;5035283;28;20032;-73
2022/10/12 10:46:45;;;;;;;18.00;3.30;;;;;;;18.12;73.10;100323.88;5045145;28;20401;-72
2022/10/12 10:49:23;;;;;;;12.57;3.13;;;;;;;17.99;73.81;100399.59;5049686;28;20055;-72
2022/10/12 10:51:56;;;;;;;12.25;2.67;;;;;;;18.33;72.96;100410.94;5080703;28;20043;-73
2022/10/12 10:54:21;;;;;;;9.98;3.17;;;;;;;17.68;71.99;100112.41;5045645;28;20048;-72
2022/10/12 10:56:50;;;;;;;12.17;2.67;;;;;;;17.86;73.29;100364.59;5045185;28;20049;-72
2022/10/12 10:59:44;;;;;;;12.10;3.00;;;;;;;17.85;72.65;100308.94;5038748;28;20048;-72
2022/10/12 11:02:20;;;;;;;11.75;2.25;;;;;;;17.95;73.53;100497.50;5023022;28;20037;-72
2022/10/12 11:04:52;;;;;;;13.20;2.65;;;;;;;18.87;69.64;100320.16;5060285;28;20048;-73
2022/10/12 11:07:34;;;;;;;15.50;2.47;;;;;;;16.71;70.02;99731.16;5071736;28;20150;-73
2022/10/12 11:10:05;;;;;;;11.35;2.85;;;;;;;17.40;73.95;100533.84;5057795;28;20025;-73
2022/10/12 11:12:35;;;;;;;11.85;2.47;;;;;;;17.39;70.92;100137.41;5056837;28;20064;-73
2022/10/12 11:15:12;;;;;;;16.85;2.85;;;;;;;17.02;72.91;100342.25;5035160;28;20025;-73
2022/10/12 11:17:44;;;;;;;7.28;2.08;;;;;;;17.99;70.74;100364.50;5056893;28;20103;-72
2022/10/12 11:20:38;;;;;;;14.13;3.17;;;;;;;18.10;69.56;100269.25;5075033;28;20512;-73
2022/10/12 11:23:03;;;;;;;8.85;2.72;;;;;;;18.82;68.38;100298.38;5057363;28;20394;-73
2022/10/12 11:25:43;;;;;;;9.10;2.07;;;;;;;18.16;67.81;100081.09;5076792;28;20093;-73